sensor_id;sensor_type;location;lat;lon;timestamp;temperature;humidity
53776;DHT22;44276;49.534;6.378;2022-09-17T00:01:38;6.80;99.90
53776;DHT22;44276;49.534;6.378;2022-09-17T00:04:06;6.70;99.90
53776;DHT22;44276;49.534;6.378;2022-09-17T00:06:36;6.70;99.90
53776;DHT22;44276;49.534;6.378;2022-09-17T00:09:05;6.70;99.90
53776;DHT22;44276;49.534;6.378;2022-09-17T00:11:37;6.80;99.90
53776;DHT22;44276;49.534;6.378;2022-09-17T00:14:12;6.80;99.90
53776;DHT22;44276;49.534;6.378;2022-09-17T00:16:43;6.80;99.90
53776;DHT22;44276;49.534;6.378;2022-09-17T00:19:14;6.80;99.90
53776;DHT22;44276;49.534;6.378;2022-09-17T00:21:44;6.70;99.90
53776;DHT22;44276;49.534;6.378;2022-09-17T00:24:13;6.70;99.90
53776;DHT22;44276;49.534;6.378;2022-09-17T00:26:43;6.60;99.90
53776;DHT22;44276;49.534;6.378;2022-09-17T00:29:13;6.60;99.90
53776;DHT22;44276;49.534;6.378;2022-09-17T00:31:41;6.60;99.90
53776;DHT22;44276;49.534;6.378;2022-09-17T00:34:10;6.50;99.90
53776;DHT22;44276;49.534;6.378;2022-09-17T00:36:38;6.40;99.90
53776;DHT22;44276;49.534;6.378;2022-09-17T00:39:08;6.30;99.90
53776;DHT22;44276;49.534;6.378;2022-09-17T00:41:38;6.20;99.90
53776;DHT22;44276;49.534;6.378;2022-09-17T00:44:41;6.20;99.90
53776;DHT22;44276;49.534;6.378;2022-09-17T00:47:23;6.40;99.90
53776;DHT22;44276;49.534;6.378;2022-09-17T00:49:58;6.50;99.90
53776;DHT22;44276;49.534;6.378;2022-09-17T00:52:31;6.50;99.90
53776;DHT22;44276;49.534;6.378;2022-09-17T00:55:07;6.40;99.90
53776;DHT22;44276;49.534;6.378;2022-09-17T00:57:41;6.40;99.90
53776;DHT22;44276;49.534;6.378;2022-09-17T01:00:14;6.40;99.90
53776;DHT22;44276;49.534;6.378;2022-09-17T01:02:43;6.40;99.90
53776;DHT22;44276;49.534;6.378;2022-09-17T01:05:12;6.60;99.90
53776;DHT22;44276;49.534;6.378;2022-09-17T01:07:56;6.60;99.90
53776;DHT22;44276;49.534;6.378;2022-09-17T01:10:42;6.60;99.90
53776;DHT22;44276;49.534;6.378;2022-09-17T01:13:30;6.60;99.90
53776;DHT22;44276;49.534;6.378;2022-09-17T01:16:13;6.50;99.90
53776;DHT22;44276;49.534;6.378;2022-09-17T01:19:02;6.60;99.90
53776;DHT22;44276;49.534;6.378;2022-09-17T01:21:51;6.60;99.90
53776;DHT22;44276;49.534;6.378;2022-09-17T01:31:04;6.60;99.90
53776;DHT22;44276;49.534;6.378;2022-09-17T01:33:51;6.70;99.90
53776;DHT22;44276;49.534;6.378;2022-09-17T01:36:44;6.60;99.90
53776;DHT22;44276;49.534;6.378;2022-09-17T01:39:31;6.60;99.90
53776;DHT22;44276;49.534;6.378;2022-09-17T01:42:15;6.70;99.90
53776;DHT22;44276;49.534;6.378;2022-09-17T01:44:52;6.70;99.90
53776;DHT22;44276;49.534;6.378;2022-09-17T01:47:32;6.70;99.90
53776;DHT22;44276;49.534;6.378;2022-09-17T01:50:05;6.70;99.90
53776;DHT22;44276;49.534;6.378;2022-09-17T01:52:40;6.70;99.90
53776;DHT22;44276;49.534;6.378;2022-09-17T01:55:14;6.80;99.90
53776;DHT22;44276;49.534;6.378;2022-09-17T01:57:46;6.90;99.90
53776;DHT22;44276;49.534;6.378;2022-09-17T02:00:21;6.90;99.90
53776;DHT22;44276;49.534;6.378;2022-09-17T02:02:55;6.90;99.90
53776;DHT22;44276;49.534;6.378;2022-09-17T02:05:31;6.90;99.90
53776;DHT22;44276;49.534;6.378;2022-09-17T02:08:08;6.80;99.90
53776;DHT22;44276;49.534;6.378;2022-09-17T02:10:43;6.60;99.90
53776;DHT22;44276;49.534;6.378;2022-09-17T02:13:20;6.60;99.90
53776;DHT22;44276;49.534;6.378;2022-09-17T02:15:57;6.70;99.90
53776;DHT22;44276;49.534;6.378;2022-09-17T02:18:35;6.70;99.90
53776;DHT22;44276;49.534;6.378;2022-09-17T02:21:10;6.90;99.90
53776;DHT22;44276;49.534;6.378;2022-09-17T02:23:50;7.00;99.90
53776;DHT22;44276;49.534;6.378;2022-09-17T02:26:25;7.10;99.90
53776;DHT22;44276;49.534;6.378;2022-09-17T02:28:57;7.20;99.90
53776;DHT22;44276;49.534;6.378;2022-09-17T02:31:32;7.10;99.90
53776;DHT22;44276;49.534;6.378;2022-09-17T02:34:02;7.10;99.90
53776;DHT22;44276;49.534;6.378;2022-09-17T02:36:32;7.00;99.90
53776;DHT22;44276;49.534;6.378;2022-09-17T02:39:03;7.00;99.90
53776;DHT22;44276;49.534;6.378;2022-09-17T02:41:40;7.10;99.90
53776;DHT22;44276;49.534;6.378;2022-09-17T02:44:20;7.20;99.90
53776;DHT22;44276;49.534;6.378;2022-09-17T02:47:08;7.30;99.90
53776;DHT22;44276;49.534;6.378;2022-09-17T02:49:57;7.40;99.90
53776;DHT22;44276;49.534;6.378;2022-09-17T02:52:48;7.50;99.90
53776;DHT22;44276;49.534;6.378;2022-09-17T02:55:41;7.50;99.90
53776;DHT22;44276;49.534;6.378;2022-09-17T02:58:21;7.50;99.90
53776;DHT22;44276;49.534;6.378;2022-09-17T03:00:56;7.50;99.90
53776;DHT22;44276;49.534;6.378;2022-09-17T03:03:31;7.40;99.90
53776;DHT22;44276;49.534;6.378;2022-09-17T03:06:05;7.30;99.90
53776;DHT22;44276;49.534;6.378;2022-09-17T03:08:35;7.20;99.90
53776;DHT22;44276;49.534;6.378;2022-09-17T03:11:05;7.10;99.90
53776;DHT22;44276;49.534;6.378;2022-09-17T03:13:35;7.10;99.90
53776;DHT22;44276;49.534;6.378;2022-09-17T03:16:03;7.00;99.90
53776;DHT22;44276;49.534;6.378;2022-09-17T03:18:33;7.00;99.90
53776;DHT22;44276;49.534;6.378;2022-09-17T03:21:01;7.00;99.90
53776;DHT22;44276;49.534;6.378;2022-09-17T03:23:31;7.20;99.90
53776;DHT22;44276;49.534;6.378;2022-09-17T03:25:59;7.20;99.90
53776;DHT22;44276;49.534;6.378;2022-09-17T03:28:27;7.30;99.90
53776;DHT22;44276;49.534;6.378;2022-09-17T03:30:56;7.40;99.90
53776;DHT22;44276;49.534;6.378;2022-09-17T03:33:24;7.50;99.90
53776;DHT22;44276;49.534;6.378;2022-09-17T03:35:52;7.60;99.90
53776;DHT22;44276;49.534;6.378;2022-09-17T03:38:20;7.70;99.90
53776;DHT22;44276;49.534;6.378;2022-09-17T03:40:58;7.80;99.90
53776;DHT22;44276;49.534;6.378;2022-09-17T03:43:26;7.80;99.90
53776;DHT22;44276;49.534;6.378;2022-09-17T03:45:55;7.90;99.90
53776;DHT22;44276;49.534;6.378;2022-09-17T03:48:23;8.00;99.90
53776;DHT22;44276;49.534;6.378;2022-09-17T03:50:51;7.90;99.90
53776;DHT22;44276;49.534;6.378;2022-09-17T03:53:19;8.00;99.90
53776;DHT22;44276;49.534;6.378;2022-09-17T03:55:47;8.00;99.90
53776;DHT22;44276;49.534;6.378;2022-09-17T03:58:17;8.10;99.90
53776;DHT22;44276;49.534;6.378;2022-09-17T04:00:47;8.10;99.90
53776;DHT22;44276;49.534;6.378;2022-09-17T04:03:18;8.20;99.90
53776;DHT22;44276;49.534;6.378;2022-09-17T04:05:47;8.20;99.90
53776;DHT22;44276;49.534;6.378;2022-09-17T04:08:16;8.20;99.90
53776;DHT22;44276;49.534;6.378;2022-09-17T04:10:44;8.20;99.90
53776;DHT22;44276;49.534;6.378;2022-09-17T04:13:14;8.20;99.90
53776;DHT22;44276;49.534;6.378;2022-09-17T04:15:45;8.10;99.90
53776;DHT22;44276;49.534;6.378;2022-09-17T04:18:14;8.20;99.90
53776;DHT22;44276;49.534;6.378;2022-09-17T04:20:42;8.10;99.90
53776;DHT22;44276;49.534;6.378;2022-09-17T04:23:11;8.20;99.90
53776;DHT22;44276;49.534;6.378;2022-09-17T04:25:39;8.20;99.90
53776;DHT22;44276;49.534;6.378;2022-09-17T04:28:07;8.30;99.90
53776;DHT22;44276;49.534;6.378;2022-09-17T04:30:37;8.30;99.90
53776;DHT22;44276;49.534;6.378;2022-09-17T04:33:06;8.30;99.90
53776;DHT22;44276;49.534;6.378;2022-09-17T04:35:35;8.30;99.90
53776;DHT22;44276;49.534;6.378;2022-09-17T04:38:03;8.30;99.90
53776;DHT22;44276;49.534;6.378;2022-09-17T04:40:32;8.40;99.90
53776;DHT22;44276;49.534;6.378;2022-09-17T04:43:00;8.40;99.90
53776;DHT22;44276;49.534;6.378;2022-09-17T04:45:30;8.40;99.90
53776;DHT22;44276;49.534;6.378;2022-09-17T04:48:01;8.40;99.90
53776;DHT22;44276;49.534;6.378;2022-09-17T04:50:29;8.40;99.90
53776;DHT22;44276;49.534;6.378;2022-09-17T04:52:58;8.40;99.90
53776;DHT22;44276;49.534;6.378;2022-09-17T04:55:26;8.20;99.90
53776;DHT22;44276;49.534;6.378;2022-09-17T04:57:54;8.10;99.90
53776;DHT22;44276;49.534;6.378;2022-09-17T05:00:23;8.00;99.90
53776;DHT22;44276;49.534;6.378;2022-09-17T05:02:53;8.00;99.90
53776;DHT22;44276;49.534;6.378;2022-09-17T05:05:23;8.10;99.90
53776;DHT22;44276;49.534;6.378;2022-09-17T05:07:51;8.20;99.90
53776;DHT22;44276;49.534;6.378;2022-09-17T05:10:21;8.30;99.90
53776;DHT22;44276;49.534;6.378;2022-09-17T05:12:52;8.40;99.90
53776;DHT22;44276;49.534;6.378;2022-09-17T05:15:23;8.50;99.90
53776;DHT22;44276;49.534;6.378;2022-09-17T05:17:52;8.50;99.90
53776;DHT22;44276;49.534;6.378;2022-09-17T05:20:20;8.50;99.90
53776;DHT22;44276;49.534;6.378;2022-09-17T05:22:51;8.50;99.90
53776;DHT22;44276;49.534;6.378;2022-09-17T05:25:20;8.40;99.90
53776;DHT22;44276;49.534;6.378;2022-09-17T05:27:51;8.30;99.90
53776;DHT22;44276;49.534;6.378;2022-09-17T05:30:20;8.20;99.90
53776;DHT22;44276;49.534;6.378;2022-09-17T05:32:57;8.10;99.90
53776;DHT22;44276;49.534;6.378;2022-09-17T05:35:27;8.20;99.90
53776;DHT22;44276;49.534;6.378;2022-09-17T05:37:59;8.20;99.90
53776;DHT22;44276;49.534;6.378;2022-09-17T05:40:29;8.30;99.90
53776;DHT22;44276;49.534;6.378;2022-09-17T05:42:58;8.40;99.90
53776;DHT22;44276;49.534;6.378;2022-09-17T05:45:28;8.60;99.90
53776;DHT22;44276;49.534;6.378;2022-09-17T05:47:58;8.60;99.90
53776;DHT22;44276;49.534;6.378;2022-09-17T05:50:28;8.60;99.90
53776;DHT22;44276;49.534;6.378;2022-09-17T05:53:02;8.70;99.90
53776;DHT22;44276;49.534;6.378;2022-09-17T05:55:32;8.80;99.90
53776;DHT22;44276;49.534;6.378;2022-09-17T05:58:08;8.90;99.90
53776;DHT22;44276;49.534;6.378;2022-09-17T06:00:38;9.00;99.90
53776;DHT22;44276;49.534;6.378;2022-09-17T06:03:08;9.20;99.90
53776;DHT22;44276;49.534;6.378;2022-09-17T06:05:37;9.10;99.90
53776;DHT22;44276;49.534;6.378;2022-09-17T06:08:08;9.20;99.90
53776;DHT22;44276;49.534;6.378;2022-09-17T06:10:37;9.10;99.90
53776;DHT22;44276;49.534;6.378;2022-09-17T06:13:07;9.20;99.90
53776;DHT22;44276;49.534;6.378;2022-09-17T06:15:35;9.40;99.90
53776;DHT22;44276;49.534;6.378;2022-09-17T06:18:03;10.30;99.90
53776;DHT22;44276;49.534;6.378;2022-09-17T06:20:32;11.50;99.90
53776;DHT22;44276;49.534;6.378;2022-09-17T06:23:00;11.80;99.90
53776;DHT22;44276;49.534;6.378;2022-09-17T06:25:30;11.70;99.90
53776;DHT22;44276;49.534;6.378;2022-09-17T06:28:00;12.20;99.90
53776;DHT22;44276;49.534;6.378;2022-09-17T06:30:29;13.00;99.90
53776;DHT22;44276;49.534;6.378;2022-09-17T06:32:58;13.60;99.90
53776;DHT22;44276;49.534;6.378;2022-09-17T06:35:28;13.20;99.90
53776;DHT22;44276;49.534;6.378;2022-09-17T06:37:58;13.30;99.90
53776;DHT22;44276;49.534;6.378;2022-09-17T06:40:26;14.10;99.90
53776;DHT22;44276;49.534;6.378;2022-09-17T06:42:57;13.40;99.90
53776;DHT22;44276;49.534;6.378;2022-09-17T06:45:26;12.40;99.90
53776;DHT22;44276;49.534;6.378;2022-09-17T06:47:54;11.90;99.90
53776;DHT22;44276;49.534;6.378;2022-09-17T06:50:23;12.30;99.90
53776;DHT22;44276;49.534;6.378;2022-09-17T06:52:53;13.00;99.90
53776;DHT22;44276;49.534;6.378;2022-09-17T06:55:21;13.50;99.60
53776;DHT22;44276;49.534;6.378;2022-09-17T06:57:50;14.20;92.80
53776;DHT22;44276;49.534;6.378;2022-09-17T07:00:19;14.90;82.20
53776;DHT22;44276;49.534;6.378;2022-09-17T07:02:54;15.20;72.90
53776;DHT22;44276;49.534;6.378;2022-09-17T07:05:23;15.50;69.60
53776;DHT22;44276;49.534;6.378;2022-09-17T07:07:52;15.60;69.60
53776;DHT22;44276;49.534;6.378;2022-09-17T07:10:21;15.30;69.50
53776;DHT22;44276;49.534;6.378;2022-09-17T07:12:51;15.10;69.10
53776;DHT22;44276;49.534;6.378;2022-09-17T07:15:22;14.50;76.00
53776;DHT22;44276;49.534;6.378;2022-09-17T07:17:50;14.00;87.30
53776;DHT22;44276;49.534;6.378;2022-09-17T07:20:19;14.20;84.60
53776;DHT22;44276;49.534;6.378;2022-09-17T07:22:54;14.70;81.10
53776;DHT22;44276;49.534;6.378;2022-09-17T07:25:23;15.50;69.20
53776;DHT22;44276;49.534;6.378;2022-09-17T07:27:52;15.40;69.00
53776;DHT22;44276;49.534;6.378;2022-09-17T07:30:23;14.60;79.00
53776;DHT22;44276;49.534;6.378;2022-09-17T07:32:51;14.10;88.80
53776;DHT22;44276;49.534;6.378;2022-09-17T07:35:19;13.80;93.50
53776;DHT22;44276;49.534;6.378;2022-09-17T07:37:48;13.80;94.20
53776;DHT22;44276;49.534;6.378;2022-09-17T07:40:16;13.90;92.40
53776;DHT22;44276;49.534;6.378;2022-09-17T07:42:44;13.70;95.00
53776;DHT22;44276;49.534;6.378;2022-09-17T07:45:13;13.70;95.10
53776;DHT22;44276;49.534;6.378;2022-09-17T07:47:42;14.30;91.40
53776;DHT22;44276;49.534;6.378;2022-09-17T07:50:11;14.80;81.10
53776;DHT22;44276;49.534;6.378;2022-09-17T07:52:44;15.00;76.10
53776;DHT22;44276;49.534;6.378;2022-09-17T07:55:14;14.80;77.80
53776;DHT22;44276;49.534;6.378;2022-09-17T07:57:48;14.60;79.00
53776;DHT22;44276;49.534;6.378;2022-09-17T08:00:18;14.30;86.10
53776;DHT22;44276;49.534;6.378;2022-09-17T08:02:53;14.40;84.90
53776;DHT22;44276;49.534;6.378;2022-09-17T08:05:25;14.50;79.90
53776;DHT22;44276;49.534;6.378;2022-09-17T08:07:56;14.70;76.90
53776;DHT22;44276;49.534;6.378;2022-09-17T08:10:31;15.80;71.20
53776;DHT22;44276;49.534;6.378;2022-09-17T08:13:04;16.40;63.20
53776;DHT22;44276;49.534;6.378;2022-09-17T08:15:48;16.60;62.20
53776;DHT22;44276;49.534;6.378;2022-09-17T08:18:45;16.40;61.00
53776;DHT22;44276;49.534;6.378;2022-09-17T08:21:49;16.00;60.20
53776;DHT22;44276;49.534;6.378;2022-09-17T08:24:20;15.60;67.80
53776;DHT22;44276;49.534;6.378;2022-09-17T08:26:55;15.00;71.80
53776;DHT22;44276;49.534;6.378;2022-09-17T08:29:26;14.60;79.70
53776;DHT22;44276;49.534;6.378;2022-09-17T08:32:05;14.60;83.30
53776;DHT22;44276;49.534;6.378;2022-09-17T08:34:37;14.40;79.90
53776;DHT22;44276;49.534;6.378;2022-09-17T08:37:08;14.40;83.60
53776;DHT22;44276;49.534;6.378;2022-09-17T08:39:40;14.10;95.00
53776;DHT22;44276;49.534;6.378;2022-09-17T08:42:16;13.90;93.90
53776;DHT22;44276;49.534;6.378;2022-09-17T08:44:53;14.10;94.20
53776;DHT22;44276;49.534;6.378;2022-09-17T08:47:28;14.30;86.10
53776;DHT22;44276;49.534;6.378;2022-09-17T08:50:05;14.20;86.40
53776;DHT22;44276;49.534;6.378;2022-09-17T08:55:49;14.50;85.40
53776;DHT22;44276;49.534;6.378;2022-09-17T08:59:02;15.00;81.10
53776;DHT22;44276;49.534;6.378;2022-09-17T09:01:43;15.10;72.90
53776;DHT22;44276;49.534;6.378;2022-09-17T09:04:48;14.90;75.90
53776;DHT22;44276;49.534;6.378;2022-09-17T09:07:29;15.00;75.60
53776;DHT22;44276;49.534;6.378;2022-09-17T09:10:13;15.00;74.60
53776;DHT22;44276;49.534;6.378;2022-09-17T09:12:46;14.80;74.40
53776;DHT22;44276;49.534;6.378;2022-09-17T09:15:32;14.70;73.80
53776;DHT22;44276;49.534;6.378;2022-09-17T09:18:14;14.60;70.10
53776;DHT22;44276;49.534;6.378;2022-09-17T09:20:49;14.70;71.40
53776;DHT22;44276;49.534;6.378;2022-09-17T09:23:26;14.50;73.30
53776;DHT22;44276;49.534;6.378;2022-09-17T09:26:09;14.80;72.90
53776;DHT22;44276;49.534;6.378;2022-09-17T09:28:59;16.20;62.30
53776;DHT22;44276;49.534;6.378;2022-09-17T09:32:12;17.70;47.60
53776;DHT22;44276;49.534;6.378;2022-09-17T09:34:49;19.20;41.00
53776;DHT22;44276;49.534;6.378;2022-09-17T09:37:21;20.50;35.00
53776;DHT22;44276;49.534;6.378;2022-09-17T09:40:02;20.00;32.40
53776;DHT22;44276;49.534;6.378;2022-09-17T09:42:43;19.00;35.40
53776;DHT22;44276;49.534;6.378;2022-09-17T09:45:16;18.80;35.20
53776;DHT22;44276;49.534;6.378;2022-09-17T09:47:59;18.40;36.70
53776;DHT22;44276;49.534;6.378;2022-09-17T09:50:44;17.60;41.10
53776;DHT22;44276;49.534;6.378;2022-09-17T09:53:42;19.60;35.80
53776;DHT22;44276;49.534;6.378;2022-09-17T09:56:46;21.40;28.80
53776;DHT22;44276;49.534;6.378;2022-09-17T09:59:46;22.80;26.60
53776;DHT22;44276;49.534;6.378;2022-09-17T10:02:26;23.30;28.90
53776;DHT22;44276;49.534;6.378;2022-09-17T10:05:07;21.10;33.70
53776;DHT22;44276;49.534;6.378;2022-09-17T10:08:18;19.00;37.50
53776;DHT22;44276;49.534;6.378;2022-09-17T10:10:58;17.30;43.90
53776;DHT22;44276;49.534;6.378;2022-09-17T10:13:31;17.20;44.80
53776;DHT22;44276;49.534;6.378;2022-09-17T10:19:20;20.60;29.20
53776;DHT22;44276;49.534;6.378;2022-09-17T10:22:32;23.20;25.30
53776;DHT22;44276;49.534;6.378;2022-09-17T10:25:26;24.80;22.70
53776;DHT22;44276;49.534;6.378;2022-09-17T10:27:57;23.90;21.50
53776;DHT22;44276;49.534;6.378;2022-09-17T10:30:29;21.50;23.60
53776;DHT22;44276;49.534;6.378;2022-09-17T10:33:16;20.10;24.40
53776;DHT22;44276;49.534;6.378;2022-09-17T10:36:00;19.30;25.40
53776;DHT22;44276;49.534;6.378;2022-09-17T10:38:33;19.10;27.10
53776;DHT22;44276;49.534;6.378;2022-09-17T10:41:18;18.70;30.30
53776;DHT22;44276;49.534;6.378;2022-09-17T10:43:49;17.60;30.00
53776;DHT22;44276;49.534;6.378;2022-09-17T10:46:33;16.90;30.50
53776;DHT22;44276;49.534;6.378;2022-09-17T10:49:08;17.10;30.00
53776;DHT22;44276;49.534;6.378;2022-09-17T10:51:39;17.60;30.20
53776;DHT22;44276;49.534;6.378;2022-09-17T10:54:24;18.30;29.50
53776;DHT22;44276;49.534;6.378;2022-09-17T10:57:09;19.10;27.50
53776;DHT22;44276;49.534;6.378;2022-09-17T11:00:03;19.00;25.40
53776;DHT22;44276;49.534;6.378;2022-09-17T11:03:23;19.10;26.10
53776;DHT22;44276;49.534;6.378;2022-09-17T11:06:19;19.90;25.50
53776;DHT22;44276;49.534;6.378;2022-09-17T11:09:11;20.60;24.20
53776;DHT22;44276;49.534;6.378;2022-09-17T11:12:19;20.70;24.40
53776;DHT22;44276;49.534;6.378;2022-09-17T11:15:13;20.90;24.50
53776;DHT22;44276;49.534;6.378;2022-09-17T11:21:41;23.10;21.80
53776;DHT22;44276;49.534;6.378;2022-09-17T11:28:12;24.30;19.30
53776;DHT22;44276;49.534;6.378;2022-09-17T11:31:33;22.90;19.60
53776;DHT22;44276;49.534;6.378;2022-09-17T11:34:28;21.10;21.70
53776;DHT22;44276;49.534;6.378;2022-09-17T11:37:19;20.00;25.30
53776;DHT22;44276;49.534;6.378;2022-09-17T11:39:56;19.50;25.50
53776;DHT22;44276;49.534;6.378;2022-09-17T11:42:32;18.90;25.30
53776;DHT22;44276;49.534;6.378;2022-09-17T11:45:18;18.90;25.40
53776;DHT22;44276;49.534;6.378;2022-09-17T11:51:30;20.70;23.50
53776;DHT22;44276;49.534;6.378;2022-09-17T11:54:26;21.60;21.40
53776;DHT22;44276;49.534;6.378;2022-09-17T11:57:05;20.40;22.90
53776;DHT22;44276;49.534;6.378;2022-09-17T12:00:05;19.40;23.90
53776;DHT22;44276;49.534;6.378;2022-09-17T12:02:49;19.10;24.60
53776;DHT22;44276;49.534;6.378;2022-09-17T12:05:28;19.20;24.40
53776;DHT22;44276;49.534;6.378;2022-09-17T12:08:18;19.30;24.70
53776;DHT22;44276;49.534;6.378;2022-09-17T12:11:00;19.30;24.70
53776;DHT22;44276;49.534;6.378;2022-09-17T12:13:41;19.30;25.80
53776;DHT22;44276;49.534;6.378;2022-09-17T12:16:18;19.70;26.00
53776;DHT22;44276;49.534;6.378;2022-09-17T12:19:08;19.40;25.30
53776;DHT22;44276;49.534;6.378;2022-09-17T12:21:59;18.80;27.00
53776;DHT22;44276;49.534;6.378;2022-09-17T12:24:38;18.30;26.90
53776;DHT22;44276;49.534;6.378;2022-09-17T12:27:29;18.70;26.80
53776;DHT22;44276;49.534;6.378;2022-09-17T12:30:10;19.70;26.90
53776;DHT22;44276;49.534;6.378;2022-09-17T12:32:56;21.20;24.30
53776;DHT22;44276;49.534;6.378;2022-09-17T12:35:51;22.30;22.50
53776;DHT22;44276;49.534;6.378;2022-09-17T12:39:08;22.40;21.70
53776;DHT22;44276;49.534;6.378;2022-09-17T12:42:02;21.00;25.20
53776;DHT22;44276;49.534;6.378;2022-09-17T12:44:53;19.50;25.30
53776;DHT22;44276;49.534;6.378;2022-09-17T12:47:59;18.50;26.30
53776;DHT22;44276;49.534;6.378;2022-09-17T12:51:01;18.70;25.60
53776;DHT22;44276;49.534;6.378;2022-09-17T12:53:41;18.60;25.90
53776;DHT22;44276;49.534;6.378;2022-09-17T12:56:27;18.00;26.50
53776;DHT22;44276;49.534;6.378;2022-09-17T12:59:15;17.80;26.90
53776;DHT22;44276;49.534;6.378;2022-09-17T13:01:51;17.50;27.40
53776;DHT22;44276;49.534;6.378;2022-09-17T13:04:31;17.10;28.20
53776;DHT22;44276;49.534;6.378;2022-09-17T13:11:09;17.10;28.90
53776;DHT22;44276;49.534;6.378;2022-09-17T13:13:51;18.40;27.50
53776;DHT22;44276;49.534;6.378;2022-09-17T13:16:32;19.90;24.90
53776;DHT22;44276;49.534;6.378;2022-09-17T13:19:14;20.80;24.10
53776;DHT22;44276;49.534;6.378;2022-09-17T13:21:53;20.30;24.10
53776;DHT22;44276;49.534;6.378;2022-09-17T13:24:28;19.70;24.40
53776;DHT22;44276;49.534;6.378;2022-09-17T13:26:59;19.30;24.40
53776;DHT22;44276;49.534;6.378;2022-09-17T13:29:57;18.80;24.60
53776;DHT22;44276;49.534;6.378;2022-09-17T13:32:45;18.20;25.30
53776;DHT22;44276;49.534;6.378;2022-09-17T13:35:47;17.80;27.40
53776;DHT22;44276;49.534;6.378;2022-09-17T13:38:17;17.50;28.40
53776;DHT22;44276;49.534;6.378;2022-09-17T13:40:50;17.10;29.70
53776;DHT22;44276;49.534;6.378;2022-09-17T13:43:21;17.10;29.70
53776;DHT22;44276;49.534;6.378;2022-09-17T13:46:10;17.00;31.60
53776;DHT22;44276;49.534;6.378;2022-09-17T13:48:53;16.80;33.30
53776;DHT22;44276;49.534;6.378;2022-09-17T13:51:50;16.50;36.20
53776;DHT22;44276;49.534;6.378;2022-09-17T13:54:21;16.40;38.80
53776;DHT22;44276;49.534;6.378;2022-09-17T13:57:08;16.30;37.80
53776;DHT22;44276;49.534;6.378;2022-09-17T13:59:54;16.10;38.40
53776;DHT22;44276;49.534;6.378;2022-09-17T14:02:30;15.90;37.30
53776;DHT22;44276;49.534;6.378;2022-09-17T14:05:24;15.80;38.60
53776;DHT22;44276;49.534;6.378;2022-09-17T14:08:13;15.90;39.20
53776;DHT22;44276;49.534;6.378;2022-09-17T14:10:54;16.30;38.60
53776;DHT22;44276;49.534;6.378;2022-09-17T14:13:38;16.40;36.20
53776;DHT22;44276;49.534;6.378;2022-09-17T14:16:44;16.30;38.70
53776;DHT22;44276;49.534;6.378;2022-09-17T14:19:41;16.20;37.50
53776;DHT22;44276;49.534;6.378;2022-09-17T14:22:24;16.00;39.30
53776;DHT22;44276;49.534;6.378;2022-09-17T14:24:55;16.00;40.10
53776;DHT22;44276;49.534;6.378;2022-09-17T14:27:39;16.00;39.00
53776;DHT22;44276;49.534;6.378;2022-09-17T14:30:18;16.10;40.30
53776;DHT22;44276;49.534;6.378;2022-09-17T14:32:54;16.20;38.60
53776;DHT22;44276;49.534;6.378;2022-09-17T14:35:33;16.30;40.20
53776;DHT22;44276;49.534;6.378;2022-09-17T14:38:13;16.30;39.20
53776;DHT22;44276;49.534;6.378;2022-09-17T14:40:52;16.30;41.10
53776;DHT22;44276;49.534;6.378;2022-09-17T14:43:33;16.20;39.90
53776;DHT22;44276;49.534;6.378;2022-09-17T14:46:15;15.90;41.30
53776;DHT22;44276;49.534;6.378;2022-09-17T14:48:47;15.60;47.60
53776;DHT22;44276;49.534;6.378;2022-09-17T14:51:23;15.20;64.00
53776;DHT22;44276;49.534;6.378;2022-09-17T14:54:20;14.50;69.20
53776;DHT22;44276;49.534;6.378;2022-09-17T14:56:57;14.00;72.30
53776;DHT22;44276;49.534;6.378;2022-09-17T14:59:41;13.80;85.60
53776;DHT22;44276;49.534;6.378;2022-09-17T15:05:26;13.40;99.90
53776;DHT22;44276;49.534;6.378;2022-09-17T15:08:12;13.20;99.90
53776;DHT22;44276;49.534;6.378;2022-09-17T15:10:47;13.00;99.90
53776;DHT22;44276;49.534;6.378;2022-09-17T15:13:22;12.90;99.90
53776;DHT22;44276;49.534;6.378;2022-09-17T15:15:57;13.00;99.90
53776;DHT22;44276;49.534;6.378;2022-09-17T15:18:39;13.10;99.90
53776;DHT22;44276;49.534;6.378;2022-09-17T15:21:17;13.20;99.90
53776;DHT22;44276;49.534;6.378;2022-09-17T15:23:57;13.40;99.90
53776;DHT22;44276;49.534;6.378;2022-09-17T15:26:32;13.40;99.90
53776;DHT22;44276;49.534;6.378;2022-09-17T15:29:05;13.40;99.90
53776;DHT22;44276;49.534;6.378;2022-09-17T15:31:37;13.50;99.90
53776;DHT22;44276;49.534;6.378;2022-09-17T15:34:05;13.70;99.90
53776;DHT22;44276;49.534;6.378;2022-09-17T15:36:37;14.40;99.90
53776;DHT22;44276;49.534;6.378;2022-09-17T15:39:30;15.30;92.70
53776;DHT22;44276;49.534;6.378;2022-09-17T15:42:04;15.90;77.40
53776;DHT22;44276;49.534;6.378;2022-09-17T15:44:34;16.00;78.20
53776;DHT22;44276;49.534;6.378;2022-09-17T15:47:33;15.70;72.20
53776;DHT22;44276;49.534;6.378;2022-09-17T15:50:11;15.40;74.20
53776;DHT22;44276;49.534;6.378;2022-09-17T15:52:40;15.20;76.80
53776;DHT22;44276;49.534;6.378;2022-09-17T15:55:28;15.10;79.70
53776;DHT22;44276;49.534;6.378;2022-09-17T15:57:59;15.10;75.70
53776;DHT22;44276;49.534;6.378;2022-09-17T16:00:30;15.30;76.00
53776;DHT22;44276;49.534;6.378;2022-09-17T16:06:38;14.90;75.30
53776;DHT22;44276;49.534;6.378;2022-09-17T16:12:14;14.80;82.30
53776;DHT22;44276;49.534;6.378;2022-09-17T16:14:45;15.30;77.30
53776;DHT22;44276;49.534;6.378;2022-09-17T16:17:28;15.50;76.80
53776;DHT22;44276;49.534;6.378;2022-09-17T16:20:08;15.60;75.80
53776;DHT22;44276;49.534;6.378;2022-09-17T16:22:40;15.60;74.40
53776;DHT22;44276;49.534;6.378;2022-09-17T16:25:09;15.40;76.00
53776;DHT22;44276;49.534;6.378;2022-09-17T16:27:47;15.20;77.90
53776;DHT22;44276;49.534;6.378;2022-09-17T16:30:19;15.00;79.00
53776;DHT22;44276;49.534;6.378;2022-09-17T16:32:50;14.60;88.50
53776;DHT22;44276;49.534;6.378;2022-09-17T16:35:21;14.20;90.10
53776;DHT22;44276;49.534;6.378;2022-09-17T16:37:52;14.10;93.30
53776;DHT22;44276;49.534;6.378;2022-09-17T16:40:22;14.00;95.50
53776;DHT22;44276;49.534;6.378;2022-09-17T16:42:54;13.80;99.50
53776;DHT22;44276;49.534;6.378;2022-09-17T16:45:22;13.60;96.10
53776;DHT22;44276;49.534;6.378;2022-09-17T16:47:56;13.40;97.40
53776;DHT22;44276;49.534;6.378;2022-09-17T16:50:25;13.50;99.20
53776;DHT22;44276;49.534;6.378;2022-09-17T16:52:53;13.60;96.20
53776;DHT22;44276;49.534;6.378;2022-09-17T16:55:22;13.70;92.80
53776;DHT22;44276;49.534;6.378;2022-09-17T16:57:50;13.60;93.00
53776;DHT22;44276;49.534;6.378;2022-09-17T17:00:19;13.60;94.30
53776;DHT22;44276;49.534;6.378;2022-09-17T17:02:52;13.50;98.70
53776;DHT22;44276;49.534;6.378;2022-09-17T17:05:25;13.50;97.90
53776;DHT22;44276;49.534;6.378;2022-09-17T17:07:54;13.40;99.70
53776;DHT22;44276;49.534;6.378;2022-09-17T17:10:24;13.30;99.90
53776;DHT22;44276;49.534;6.378;2022-09-17T17:12:53;13.30;99.90
53776;DHT22;44276;49.534;6.378;2022-09-17T17:15:21;13.20;99.90
53776;DHT22;44276;49.534;6.378;2022-09-17T17:17:50;13.20;99.90